createdAt,value
2023-02-23T00:02:18.360Z,100.00
2023-02-23T00:04:50.294Z,100.00
2023-02-23T00:07:20.049Z,100.00
2023-02-23T00:09:47.331Z,100.00
2023-02-23T00:12:16.879Z,100.00
2023-02-23T00:14:49.028Z,100.00
2023-02-23T00:17:17.528Z,100.00
2023-02-23T00:19:49.712Z,100.00
2023-02-23T00:22:16.884Z,100.00
2023-02-23T00:24:47.770Z,100.00
2023-02-23T00:27:19.023Z,100.00
2023-02-23T00:29:49.791Z,100.00
2023-02-23T00:32:31.144Z,100.00
2023-02-23T00:34:58.508Z,100.00
2023-02-23T00:37:29.984Z,100.00
2023-02-23T00:39:57.416Z,100.00
2023-02-23T00:42:29.698Z,100.00
2023-02-23T00:44:57.275Z,100.00
2023-02-23T00:47:26.566Z,99.93
2023-02-23T00:49:53.553Z,100.00
2023-02-23T00:52:23.624Z,100.00
2023-02-23T00:54:51.470Z,100.00
2023-02-23T00:57:22.281Z,100.00
2023-02-23T00:59:49.257Z,100.00
2023-02-23T01:02:16.215Z,100.00
2023-02-23T01:04:43.172Z,99.47
2023-02-23T01:07:12.895Z,99.16
2023-02-23T01:09:40.026Z,100.00
2023-02-23T01:12:07.665Z,99.27
2023-02-23T01:14:35.841Z,99.54
2023-02-23T01:17:07.771Z,98.99
2023-02-23T01:19:39.800Z,100.00
2023-02-23T01:22:09.396Z,100.00
2023-02-23T01:24:38.784Z,100.00
2023-02-23T01:27:08.015Z,100.00
2023-02-23T01:29:35.069Z,100.00
2023-02-23T01:32:05.053Z,100.00
2023-02-23T01:34:32.920Z,100.00
2023-02-23T01:36:59.922Z,100.00
2023-02-23T01:39:27.098Z,100.00
2023-02-23T01:41:55.555Z,100.00
2023-02-23T01:44:22.401Z,100.00
2023-02-23T01:46:50.289Z,100.00
2023-02-23T01:49:25.961Z,100.00
2023-02-23T01:52:03.745Z,100.00
2023-02-23T01:54:50.400Z,100.00
2023-02-23T01:57:24.719Z,100.00
2023-02-23T01:59:54.844Z,100.00
2023-02-23T02:02:33.539Z,100.00
2023-02-23T02:05:06.450Z,100.00
2023-02-23T02:07:40.065Z,100.00
2023-02-23T02:10:11.536Z,100.00
2023-02-23T02:12:45.992Z,100.00
2023-02-23T02:15:18.808Z,100.00
2023-02-23T02:18:18.749Z,100.00
2023-02-23T02:21:11.665Z,100.00
2023-02-23T02:24:08.843Z,100.00
2023-02-23T02:26:47.810Z,100.00
2023-02-23T02:29:39.754Z,100.00
2023-02-23T02:32:24.764Z,100.00
2023-02-23T02:35:46.695Z,100.00
2023-02-23T02:38:50.690Z,100.00
2023-02-23T02:41:42.356Z,100.00
2023-02-23T02:44:31.028Z,100.00
2023-02-23T02:47:09.574Z,100.00
2023-02-23T02:50:06.942Z,100.00
2023-02-23T02:52:52.657Z,100.00
2023-02-23T02:55:26.464Z,100.00
2023-02-23T02:57:58.122Z,100.00
2023-02-23T03:00:53.943Z,100.00
2023-02-23T03:04:02.821Z,100.00
2023-02-23T03:06:51.387Z,100.00
2023-02-23T03:10:18.160Z,100.00
2023-02-23T03:13:37.712Z,100.00
2023-02-23T03:16:55.438Z,100.00
2023-02-23T03:20:24.263Z,100.00
2023-02-23T03:24:09.907Z,100.00
2023-02-23T03:27:17.333Z,100.00
2023-02-23T03:30:12.247Z,100.00
2023-02-23T03:33:11.575Z,100.00
2023-02-23T03:36:29.117Z,100.00
2023-02-23T03:39:31.638Z,100.00
2023-02-23T03:42:21.378Z,100.00
2023-02-23T03:45:08.970Z,100.00
2023-02-23T03:48:00.635Z,100.00
2023-02-23T03:51:05.823Z,100.00
2023-02-23T03:54:04.937Z,100.00
2023-02-23T03:56:56.040Z,100.00
2023-02-23T03:59:49.145Z,100.00
2023-02-23T04:02:38.254Z,100.00
2023-02-23T04:05:30.525Z,100.00
2023-02-23T04:08:19.948Z,100.00
2023-02-23T04:11:15.067Z,100.00
2023-02-23T04:13:44.957Z,100.00
2023-02-23T04:16:12.422Z,100.00
2023-02-23T04:18:45.051Z,100.00
2023-02-23T04:21:14.990Z,100.00
2023-02-23T04:23:43.463Z,100.00
2023-02-23T04:26:10.472Z,100.00
2023-02-23T04:28:39.934Z,100.00
2023-02-23T04:31:07.090Z,100.00
2023-02-23T04:33:36.432Z,100.00
2023-02-23T04:36:03.590Z,100.00
2023-02-23T04:38:30.630Z,100.00
2023-02-23T04:40:57.652Z,100.00
2023-02-23T04:43:24.616Z,100.00
2023-02-23T04:45:54.184Z,100.00
2023-02-23T04:48:26.847Z,100.00
2023-02-23T04:50:54.980Z,100.00
2023-02-23T04:53:25.293Z,100.00
2023-02-23T04:55:52.527Z,100.00
2023-02-23T04:58:21.849Z,100.00
2023-02-23T05:00:49.757Z,100.00
2023-02-23T05:03:17.650Z,100.00
2023-02-23T05:05:45.292Z,100.00
2023-02-23T05:08:12.505Z,100.00
2023-02-23T05:10:41.620Z,100.00
2023-02-23T05:13:11.532Z,100.00
2023-02-23T05:15:41.990Z,100.00
2023-02-23T05:18:09.386Z,100.00
2023-02-23T05:20:36.784Z,100.00
2023-02-23T05:23:03.914Z,100.00
2023-02-23T05:25:31.028Z,100.00
2023-02-23T05:27:58.092Z,100.00
2023-02-23T05:30:25.133Z,100.00
2023-02-23T05:32:52.189Z,100.00
2023-02-23T05:35:21.367Z,100.00
2023-02-23T05:37:50.572Z,100.00
2023-02-23T05:40:20.794Z,100.00
2023-02-23T05:42:50.827Z,100.00
2023-02-23T05:45:18.004Z,100.00
2023-02-23T05:47:45.066Z,100.00
2023-02-23T05:50:14.549Z,100.00
2023-02-23T05:52:44.368Z,100.00
2023-02-23T05:55:15.181Z,100.00
2023-02-23T05:57:42.872Z,100.00
2023-02-23T06:00:13.420Z,100.00
2023-02-23T06:02:41.696Z,100.00
2023-02-23T06:05:11.371Z,100.00
2023-02-23T06:07:38.712Z,100.00
2023-02-23T06:10:06.622Z,100.00
2023-02-23T06:12:33.654Z,100.00
2023-02-23T06:15:03.443Z,100.00
2023-02-23T06:17:33.003Z,100.00
2023-02-23T06:20:03.475Z,100.00
2023-02-23T06:22:31.044Z,100.00
2023-02-23T06:25:04.994Z,100.00
2023-02-23T06:27:34.344Z,100.00
2023-02-23T06:30:03.324Z,100.00
2023-02-23T06:32:30.354Z,100.00
2023-02-23T06:34:57.285Z,100.00
2023-02-23T06:37:27.067Z,100.00
2023-02-23T06:39:56.487Z,100.00
2023-02-23T06:42:24.275Z,100.00
2023-02-23T06:44:53.696Z,100.00
2023-02-23T06:47:20.681Z,100.00
2023-02-23T06:49:47.832Z,100.00
2023-02-23T06:52:17.445Z,100.00
2023-02-23T06:54:45.336Z,100.00
2023-02-23T06:57:17.049Z,100.00
2023-02-23T06:59:43.913Z,100.00
2023-02-23T07:02:14.454Z,100.00
2023-02-23T07:04:41.342Z,100.00
2023-02-23T07:07:08.294Z,100.00
2023-02-23T07:09:35.334Z,100.00
2023-02-23T07:12:07.167Z,100.00
2023-02-23T07:14:37.666Z,100.00
2023-02-23T07:17:05.423Z,100.00
2023-02-23T07:19:35.284Z,99.02
2023-02-23T07:22:03.535Z,100.00
2023-02-23T07:24:30.771Z,100.00
2023-02-23T07:26:57.937Z,100.00
2023-02-23T07:29:28.365Z,99.88
2023-02-23T07:32:00.374Z,100.00
2023-02-23T07:34:27.479Z,99.84
2023-02-23T07:36:58.990Z,100.00
2023-02-23T07:39:25.937Z,99.91
2023-02-23T07:41:57.491Z,99.65
2023-02-23T07:44:28.951Z,99.48
2023-02-23T07:46:56.450Z,100.00
2023-02-23T07:49:23.385Z,100.00
2023-02-23T07:51:55.446Z,100.00
2023-02-23T07:54:26.070Z,100.00
2023-02-23T07:56:53.459Z,100.00
2023-02-23T07:59:24.987Z,100.00
2023-02-23T08:01:52.436Z,99.51
2023-02-23T08:04:22.642Z,99.93
2023-02-23T08:06:52.295Z,100.00
2023-02-23T08:09:21.737Z,100.00
2023-02-23T08:11:51.890Z,99.77
2023-02-23T08:14:22.033Z,99.33
2023-02-23T08:16:51.805Z,98.96
2023-02-23T08:19:23.873Z,100.00
2023-02-23T08:21:51.115Z,99.35
2023-02-23T08:24:20.783Z,97.79
2023-02-23T08:26:50.485Z,98.45
2023-02-23T08:29:17.612Z,97.89
2023-02-23T08:31:45.084Z,97.65
2023-02-23T08:34:12.250Z,98.29
2023-02-23T08:36:40.568Z,97.45
2023-02-23T08:39:10.017Z,98.94
2023-02-23T08:41:39.708Z,98.95
2023-02-23T08:44:06.759Z,98.11
2023-02-23T08:46:34.290Z,98.15
2023-02-23T08:49:01.255Z,98.34
2023-02-23T08:51:28.197Z,98.19
2023-02-23T08:53:57.542Z,97.14
2023-02-23T08:56:27.133Z,97.06
2023-02-23T08:58:54.281Z,96.78
2023-02-23T09:01:24.616Z,96.98
2023-02-23T09:03:51.533Z,97.03
2023-02-23T09:06:22.278Z,97.05
2023-02-23T09:08:49.733Z,96.92
2023-02-23T09:11:17.043Z,97.59
2023-02-23T09:13:44.678Z,97.75
2023-02-23T09:16:11.799Z,98.19
2023-02-23T09:18:44.248Z,98.29
2023-02-23T09:21:19.145Z,98.64
2023-02-23T09:23:48.237Z,97.99
2023-02-23T09:26:18.896Z,98.71
2023-02-23T09:28:46.504Z,97.89
2023-02-23T09:31:18.300Z,98.72
2023-02-23T09:33:45.556Z,97.45
2023-02-23T09:36:20.612Z,97.83
2023-02-23T09:38:55.122Z,98.95
2023-02-23T09:41:51.267Z,97.32
2023-02-23T09:44:48.193Z,96.87
2023-02-23T09:47:32.845Z,96.82
2023-02-23T09:50:09.469Z,96.94
2023-02-23T09:52:47.672Z,95.06
2023-02-23T09:55:15.166Z,94.82
2023-02-23T09:57:49.959Z,94.81
2023-02-23T10:00:27.737Z,95.38
2023-02-23T10:03:25.033Z,94.94
2023-02-23T10:06:03.232Z,94.20
2023-02-23T10:09:14.489Z,92.98
2023-02-23T10:12:08.355Z,93.76
2023-02-23T10:14:56.213Z,94.67
2023-02-23T10:17:31.849Z,93.32
2023-02-23T10:20:29.426Z,94.23
2023-02-23T10:23:04.052Z,94.76
2023-02-23T10:25:36.075Z,93.89
2023-02-23T10:28:05.497Z,94.07
2023-02-23T10:30:34.714Z,95.68
2023-02-23T10:33:47.474Z,93.90
2023-02-23T10:36:19.681Z,93.79
2023-02-23T10:38:47.346Z,94.48
2023-02-23T10:41:15.035Z,95.45
2023-02-23T10:43:42.326Z,94.76
2023-02-23T10:46:24.373Z,93.81
2023-02-23T10:48:57.077Z,94.00
2023-02-23T10:51:32.710Z,94.04
2023-02-23T10:54:08.064Z,92.69
2023-02-23T10:56:50.154Z,94.02
2023-02-23T10:59:21.621Z,92.29
2023-02-23T11:02:01.358Z,92.00
2023-02-23T11:04:35.074Z,91.54
2023-02-23T11:07:17.865Z,92.85
2023-02-23T11:09:48.485Z,91.71
2023-02-23T11:12:23.333Z,91.83
2023-02-23T11:14:53.199Z,92.49
2023-02-23T11:17:28.699Z,91.91
2023-02-23T11:20:25.528Z,91.08
2023-02-23T11:22:52.565Z,90.24
2023-02-23T11:25:31.123Z,89.22
2023-02-23T11:27:58.890Z,89.27
2023-02-23T11:30:42.940Z,86.74
2023-02-23T11:33:21.676Z,86.33
2023-02-23T11:35:48.582Z,86.24
2023-02-23T11:38:30.601Z,86.19
2023-02-23T11:41:07.295Z,86.34
2023-02-23T11:43:36.070Z,87.88
2023-02-23T11:46:06.105Z,88.86
2023-02-23T11:48:44.051Z,90.21
2023-02-23T11:51:11.122Z,90.63
2023-02-23T11:53:46.703Z,90.43
2023-02-23T11:56:22.668Z,89.83
2023-02-23T11:58:55.858Z,89.83
2023-02-23T12:01:49.513Z,89.54
2023-02-23T12:04:37.069Z,89.25
2023-02-23T12:07:41.638Z,89.36
2023-02-23T12:10:33.004Z,88.26
2023-02-23T12:13:17.626Z,88.93
2023-02-23T12:15:54.769Z,91.62
2023-02-23T12:18:43.325Z,90.86
2023-02-23T12:21:41.192Z,89.55
2023-02-23T12:24:26.809Z,89.08
2023-02-23T12:27:35.202Z,87.34
2023-02-23T12:30:41.145Z,86.88
2023-02-23T12:33:30.043Z,88.87
2023-02-23T12:36:04.141Z,88.28
2023-02-23T12:38:56.900Z,86.80
2023-02-23T12:41:37.846Z,87.83
2023-02-23T12:44:17.389Z,87.72
2023-02-23T12:46:54.421Z,86.79
2023-02-23T12:49:45.355Z,88.36
2023-02-23T12:52:29.436Z,87.92
2023-02-23T12:55:01.211Z,87.66
2023-02-23T12:57:54.896Z,89.14
2023-02-23T13:00:58.216Z,87.68
2023-02-23T13:03:46.708Z,88.11
2023-02-23T13:06:37.839Z,89.81
2023-02-23T13:09:19.649Z,89.52
2023-02-23T13:12:53.830Z,90.05
2023-02-23T13:15:45.645Z,89.80
2023-02-23T13:18:24.654Z,90.72
2023-02-23T13:21:21.891Z,90.85
2023-02-23T13:24:19.011Z,90.88
2023-02-23T13:26:59.252Z,89.84
2023-02-23T13:29:48.693Z,90.72
2023-02-23T13:32:32.065Z,90.68
2023-02-23T13:35:01.841Z,90.83
2023-02-23T13:37:43.257Z,90.92
2023-02-23T13:40:43.187Z,90.59
2023-02-23T13:43:34.865Z,90.82
2023-02-23T13:46:26.424Z,91.92
2023-02-23T13:49:02.374Z,92.05
2023-02-23T13:51:52.151Z,91.59
2023-02-23T13:54:25.132Z,91.60
2023-02-23T13:56:59.824Z,89.81
2023-02-23T13:59:43.955Z,90.20
2023-02-23T14:02:46.736Z,90.02
2023-02-23T14:05:15.624Z,89.61
2023-02-23T14:07:46.254Z,89.83
2023-02-23T14:10:24.861Z,87.58
2023-02-23T14:13:48.797Z,88.33
2023-02-23T14:16:22.656Z,87.46
2023-02-23T14:19:07.831Z,87.33
2023-02-23T14:21:52.278Z,89.19
2023-02-23T14:24:25.096Z,88.69
2023-02-23T14:27:40.427Z,87.97
2023-02-23T14:30:11.018Z,86.82
2023-02-23T14:32:46.133Z,86.82
2023-02-23T14:35:34.656Z,86.74
2023-02-23T14:38:11.752Z,86.13
2023-02-23T14:40:46.988Z,86.57
2023-02-23T14:43:49.398Z,87.40
2023-02-23T14:46:26.495Z,85.97
2023-02-23T14:49:21.412Z,87.28
2023-02-23T14:51:58.557Z,88.07
2023-02-23T14:54:31.139Z,87.14
2023-02-23T14:57:04.645Z,87.20
2023-02-23T14:59:42.605Z,87.53
2023-02-23T15:02:18.849Z,87.06
2023-02-23T15:04:48.367Z,88.49
2023-02-23T15:07:32.184Z,87.96
2023-02-23T15:10:03.873Z,86.87
2023-02-23T15:12:39.424Z,86.33
2023-02-23T15:15:23.146Z,87.55
2023-02-23T15:18:01.071Z,87.50
2023-02-23T15:23:04.444Z,86.92
2023-02-23T15:25:41.486Z,86.84
2023-02-23T15:28:25.626Z,88.25
2023-02-23T15:31:00.919Z,87.58
2023-02-23T15:33:31.184Z,87.24
2023-02-23T15:36:23.291Z,86.90
2023-02-23T15:38:57.266Z,86.49
2023-02-23T15:41:36.839Z,86.54
2023-02-23T15:44:20.148Z,85.84
2023-02-23T15:46:54.777Z,86.73
2023-02-23T15:49:25.174Z,86.76
2023-02-23T15:52:03.681Z,87.04
2023-02-23T15:55:06.408Z,87.42
2023-02-23T15:58:01.012Z,88.22
2023-02-23T16:00:44.448Z,87.93
2023-02-23T16:03:33.403Z,87.94
2023-02-23T16:06:08.277Z,87.81
2023-02-23T16:08:36.847Z,87.34
2023-02-23T16:11:19.199Z,87.28
2023-02-23T16:13:47.087Z,86.60
2023-02-23T16:16:20.577Z,86.60
2023-02-23T16:18:54.402Z,87.47
2023-02-23T16:21:25.597Z,87.21
2023-02-23T16:24:05.636Z,87.08
2023-02-23T16:26:41.745Z,87.52
2023-02-23T16:29:18.581Z,86.74
2023-02-23T16:31:59.910Z,85.27
2023-02-23T16:34:37.281Z,86.43
2023-02-23T16:37:20.125Z,87.04
2023-02-23T16:39:48.111Z,87.25
2023-02-23T16:42:30.721Z,86.81
2023-02-23T16:45:01.148Z,87.70
2023-02-23T16:47:41.442Z,87.48
2023-02-23T16:50:24.525Z,86.76
2023-02-23T16:52:53.564Z,86.38
2023-02-23T16:55:27.246Z,86.60
2023-02-23T16:58:05.619Z,87.57
2023-02-23T17:00:34.250Z,87.17
2023-02-23T17:03:06.309Z,86.97
2023-02-23T17:05:35.892Z,87.62
2023-02-23T17:08:02.993Z,87.16
2023-02-23T17:10:35.979Z,86.39
2023-02-23T17:13:11.121Z,86.25
2023-02-23T17:15:53.637Z,86.47
2023-02-23T17:21:02.694Z,84.51
2023-02-23T17:23:50.755Z,84.95
2023-02-23T17:26:23.653Z,85.57
2023-02-23T17:28:51.351Z,84.39
2023-02-23T17:31:20.433Z,84.77
2023-02-23T17:33:50.252Z,84.49
2023-02-23T17:36:20.832Z,85.53
2023-02-23T17:38:50.929Z,85.94
2023-02-23T17:41:20.405Z,86.33
2023-02-23T17:43:49.839Z,85.35
2023-02-23T17:46:19.714Z,86.98
2023-02-23T17:48:49.535Z,86.87
2023-02-23T17:51:24.061Z,86.70
2023-02-23T17:53:51.075Z,86.92
2023-02-23T17:56:19.940Z,86.73
2023-02-23T17:58:50.637Z,87.73
2023-02-23T18:01:20.474Z,89.96
2023-02-23T18:03:48.088Z,90.76
2023-02-23T18:06:17.547Z,91.64
2023-02-23T18:08:47.058Z,92.05
2023-02-23T18:11:18.490Z,92.46
2023-02-23T18:13:51.160Z,90.52
2023-02-23T18:16:19.253Z,89.17
2023-02-23T18:18:48.880Z,89.24
2023-02-23T18:21:20.041Z,87.14
2023-02-23T18:23:50.858Z,85.51
2023-02-23T18:26:23.916Z,84.42
2023-02-23T18:28:54.216Z,84.42
2023-02-23T18:31:25.296Z,84.27
2023-02-23T18:33:56.425Z,83.06
2023-02-23T18:36:30.991Z,82.30
2023-02-23T18:39:04.097Z,81.92
2023-02-23T18:41:31.335Z,81.68
2023-02-23T18:44:02.765Z,81.71
2023-02-23T18:46:32.526Z,81.47
2023-02-23T18:48:59.807Z,80.85
2023-02-23T18:51:26.998Z,81.04
2023-02-23T18:53:54.840Z,79.88
2023-02-23T18:56:28.110Z,79.56
2023-02-23T18:59:01.471Z,79.53
2023-02-23T19:01:42.541Z,79.63
2023-02-23T19:04:10.613Z,78.79
2023-02-23T19:06:40.221Z,77.83
2023-02-23T19:09:12.677Z,78.18
2023-02-23T19:11:41.671Z,77.54
2023-02-23T19:14:18.457Z,76.97
2023-02-23T19:16:52.093Z,76.71
2023-02-23T19:19:19.138Z,76.03
2023-02-23T19:21:48.874Z,76.76
2023-02-23T19:24:16.211Z,75.77
2023-02-23T19:26:43.185Z,76.88
2023-02-23T19:29:12.324Z,77.29
2023-02-23T19:31:42.316Z,77.11
2023-02-23T19:34:11.275Z,76.79
2023-02-23T19:36:38.126Z,76.43
2023-02-23T19:39:16.007Z,76.60
2023-02-23T19:41:45.358Z,76.66
2023-02-23T19:44:12.550Z,77.46
2023-02-23T19:46:44.415Z,77.29
2023-02-23T19:49:15.627Z,76.66
2023-02-23T19:51:44.319Z,77.27
2023-02-23T19:54:12.177Z,76.57
2023-02-23T19:56:39.330Z,77.01
2023-02-23T19:59:06.734Z,76.41
2023-02-23T20:01:33.809Z,76.01
2023-02-23T20:04:06.634Z,75.50
2023-02-23T20:06:40.953Z,76.30
2023-02-23T20:09:10.439Z,76.02
2023-02-23T20:11:37.463Z,75.16
2023-02-23T20:14:08.229Z,74.40
2023-02-23T20:16:35.992Z,74.12
2023-02-23T20:19:05.591Z,74.11
2023-02-23T20:21:32.717Z,74.43
2023-02-23T20:24:03.802Z,74.35
2023-02-23T20:26:35.378Z,73.51
2023-02-23T20:29:11.255Z,74.21
2023-02-23T20:31:41.955Z,73.28
2023-02-23T20:34:11.165Z,72.84
2023-02-23T20:36:40.114Z,72.42
2023-02-23T20:39:09.274Z,73.04
2023-02-23T20:41:36.286Z,72.89
2023-02-23T20:44:03.760Z,72.39
2023-02-23T20:46:30.992Z,71.83
2023-02-23T20:48:59.472Z,71.94
2023-02-23T20:51:27.390Z,71.78
2023-02-23T20:53:57.649Z,71.91
2023-02-23T20:56:32.759Z,72.32
2023-02-23T20:58:59.965Z,72.08
2023-02-23T21:01:29.480Z,72.41
2023-02-23T21:03:56.995Z,72.72
2023-02-23T21:06:26.015Z,73.04
2023-02-23T21:09:02.746Z,73.23
2023-02-23T21:11:32.187Z,72.43
2023-02-23T21:14:02.195Z,73.00
2023-02-23T21:16:32.244Z,72.56
2023-02-23T21:19:05.234Z,72.75
2023-02-23T21:21:47.109Z,71.97
2023-02-23T21:24:19.028Z,72.45
2023-02-23T21:26:48.378Z,71.22
2023-02-23T21:29:18.533Z,72.12
2023-02-23T21:31:47.132Z,71.44
2023-02-23T21:34:18.861Z,70.56
2023-02-23T21:36:51.372Z,70.59
2023-02-23T21:39:21.538Z,70.24
2023-02-23T21:41:53.184Z,71.36
2023-02-23T21:44:20.235Z,70.58
2023-02-23T21:46:47.830Z,70.00
2023-02-23T21:49:18.958Z,70.17
2023-02-23T21:51:48.549Z,70.02
2023-02-23T21:54:18.526Z,70.12
2023-02-23T21:56:45.485Z,69.33
2023-02-23T21:59:12.415Z,71.24
2023-02-23T22:01:41.859Z,70.78
2023-02-23T22:04:14.793Z,70.43
2023-02-23T22:06:44.061Z,71.05
2023-02-23T22:09:12.671Z,71.27
2023-02-23T22:11:45.528Z,70.90
2023-02-23T22:14:22.163Z,71.66
2023-02-23T22:16:52.335Z,72.07
2023-02-23T22:19:24.771Z,71.74
2023-02-23T22:21:51.935Z,72.10
2023-02-23T22:24:19.429Z,71.96
2023-02-23T22:26:54.210Z,71.76
2023-02-23T22:29:24.304Z,71.73
2023-02-23T22:31:54.563Z,72.56
2023-02-23T22:34:22.248Z,72.12
2023-02-23T22:36:51.356Z,70.57
2023-02-23T22:39:18.677Z,71.57
2023-02-23T22:41:47.796Z,71.04
2023-02-23T22:44:20.330Z,70.52
2023-02-23T22:46:50.487Z,70.77
2023-02-23T22:49:19.861Z,69.61
2023-02-23T22:51:47.091Z,69.90
2023-02-23T22:54:14.296Z,69.84
2023-02-23T22:56:44.072Z,69.47
2023-02-23T22:59:17.520Z,69.42
2023-02-23T23:01:50.316Z,69.79
2023-02-23T23:04:19.432Z,70.50
2023-02-23T23:06:46.585Z,70.99
2023-02-23T23:09:14.879Z,70.61
2023-02-23T23:11:45.249Z,70.16
2023-02-23T23:14:18.246Z,69.49
2023-02-23T23:16:53.293Z,69.98
2023-02-23T23:19:25.292Z,69.81
2023-02-23T23:21:55.270Z,69.68
2023-02-23T23:24:24.865Z,70.31
2023-02-23T23:27:00.460Z,69.59
2023-02-23T23:29:32.545Z,70.34
2023-02-23T23:32:02.425Z,70.45
2023-02-23T23:34:33.432Z,70.88
2023-02-23T23:37:04.283Z,72.15
2023-02-23T23:39:31.224Z,72.33
2023-02-23T23:42:01.955Z,72.29
2023-02-23T23:44:29.344Z,71.90
2023-02-23T23:46:57.029Z,72.83
2023-02-23T23:49:27.036Z,73.06
2023-02-23T23:51:58.544Z,73.00
2023-02-23T23:54:38.698Z,73.72
2023-02-23T23:57:08.065Z,73.62
2023-02-23T23:59:35.872Z,73.33
